createdAt,value
2023-04-27T00:00:37.462Z,1259.00
2023-04-27T00:01:37.557Z,1263.00
2023-04-27T00:02:37.735Z,1257.00
2023-04-27T00:03:37.716Z,1255.00
2023-04-27T00:04:37.872Z,1253.00
2023-04-27T00:05:37.759Z,1246.00
2023-04-27T00:06:37.752Z,1251.00
2023-04-27T00:07:37.736Z,1259.00
2023-04-27T00:08:37.748Z,1249.00
2023-04-27T00:09:37.805Z,1230.00
2023-04-27T00:10:38.521Z,1253.00
2023-04-27T00:11:37.831Z,1239.00
2023-04-27T00:12:37.875Z,1247.00
2023-04-27T00:13:37.902Z,1245.00
2023-04-27T00:14:37.952Z,1241.00
2023-04-27T00:15:37.995Z,1240.00
2023-04-27T00:16:38.062Z,1236.00
2023-04-27T00:17:38.100Z,1251.00
2023-04-27T00:18:38.138Z,1247.00
2023-04-27T00:19:38.137Z,1237.00
2023-04-27T00:20:38.116Z,1247.00
2023-04-27T00:21:38.144Z,1247.00
2023-04-27T00:22:38.209Z,1253.00
2023-04-27T00:23:38.230Z,1244.00
2023-04-27T00:24:38.235Z,1235.00
2023-04-27T00:25:38.292Z,1232.00
2023-04-27T00:26:38.330Z,1227.00
2023-04-27T00:27:38.384Z,1244.00
2023-04-27T00:28:38.454Z,1236.00
2023-04-27T00:29:38.452Z,1248.00
2023-04-27T00:30:38.500Z,1237.00
2023-04-27T00:31:38.546Z,1236.00
2023-04-27T00:32:38.647Z,1219.00
2023-04-27T00:33:38.627Z,1239.00
2023-04-27T00:34:38.634Z,1243.00
2023-04-27T00:35:38.694Z,1233.00
2023-04-27T00:36:38.749Z,1241.00
2023-04-27T00:37:38.760Z,1236.00
2023-04-27T00:38:38.837Z,1224.00
2023-04-27T00:39:38.868Z,1238.00
2023-04-27T00:40:38.879Z,1242.00
2023-04-27T00:41:38.950Z,1238.00
2023-04-27T00:42:39.013Z,1247.00
2023-04-27T00:43:39.069Z,1234.00
2023-04-27T00:44:39.947Z,1229.00
2023-04-27T00:45:39.177Z,1235.00
2023-04-27T00:46:39.116Z,1234.00
2023-04-27T00:47:39.174Z,1223.00
2023-04-27T00:48:39.234Z,1239.00
2023-04-27T00:49:39.277Z,1223.00
2023-04-27T00:50:39.317Z,1228.00
2023-04-27T00:51:39.352Z,1228.00
2023-04-27T00:52:39.401Z,1230.00
2023-04-27T00:53:39.445Z,1221.00
2023-04-27T00:54:39.478Z,1226.00
2023-04-27T00:55:39.556Z,1231.00
2023-04-27T00:56:39.675Z,1227.00
2023-04-27T00:57:39.628Z,1232.00
2023-04-27T00:58:39.713Z,1223.00
2023-04-27T00:59:39.733Z,1233.00
2023-04-27T01:00:39.755Z,1218.00
2023-04-27T01:01:39.833Z,1224.00
2023-04-27T01:02:39.907Z,1221.00
2023-04-27T01:03:40.031Z,1225.00
2023-04-27T01:04:39.985Z,1230.00
2023-04-27T01:05:40.036Z,1217.00
2023-04-27T01:06:40.032Z,1225.00
2023-04-27T01:07:40.085Z,1227.00
2023-04-27T01:08:40.100Z,1222.00
2023-04-27T01:09:40.157Z,1215.00
2023-04-27T01:10:40.211Z,1215.00
2023-04-27T01:11:40.278Z,1221.00
2023-04-27T01:12:40.273Z,1216.00
2023-04-27T01:13:40.335Z,1215.00
2023-04-27T01:14:40.403Z,1210.00
2023-04-27T01:15:40.481Z,1216.00
2023-04-27T01:16:40.551Z,1224.00
2023-04-27T01:17:40.528Z,1216.00
2023-04-27T01:18:40.621Z,1214.00
2023-04-27T01:19:40.648Z,1219.00
2023-04-27T01:20:40.688Z,1202.00
2023-04-27T01:21:40.742Z,1215.00
2023-04-27T01:22:40.777Z,1207.00
2023-04-27T01:23:40.791Z,1213.00
2023-04-27T01:24:40.935Z,1212.00
2023-04-27T01:25:40.869Z,1211.00
2023-04-27T01:26:40.917Z,1204.00
2023-04-27T01:27:41.003Z,1205.00
2023-04-27T01:28:41.057Z,1213.00
2023-04-27T01:29:41.073Z,1206.00
2023-04-27T01:30:41.165Z,1206.00
2023-04-27T01:31:41.195Z,1191.00
2023-04-27T01:32:41.283Z,1201.00
2023-04-27T01:33:41.278Z,1210.00
2023-04-27T01:34:41.347Z,1218.00
2023-04-27T01:35:41.383Z,1209.00
2023-04-27T01:36:41.409Z,1196.00
2023-04-27T01:37:41.470Z,1210.00
2023-04-27T01:38:41.527Z,1202.00
2023-04-27T01:39:41.606Z,1192.00
2023-04-27T01:40:41.718Z,1193.00
2023-04-27T01:41:41.737Z,1197.00
2023-04-27T01:42:41.754Z,1194.00
2023-04-27T01:43:41.743Z,1203.00
2023-04-27T01:44:41.835Z,1200.00
2023-04-27T01:45:41.852Z,1190.00
2023-04-27T01:46:42.014Z,1203.00
2023-04-27T01:47:41.975Z,1204.00
2023-04-27T01:48:42.013Z,1205.00
2023-04-27T01:49:42.068Z,1185.00
2023-04-27T01:50:42.076Z,1199.00
2023-04-27T01:51:42.134Z,1208.00
2023-04-27T01:52:42.191Z,1194.00
2023-04-27T01:53:42.242Z,1192.00
2023-04-27T01:54:42.270Z,1196.00
2023-04-27T01:55:42.362Z,1195.00
2023-04-27T01:56:42.430Z,1195.00
2023-04-27T01:57:42.502Z,1192.00
2023-04-27T01:58:42.501Z,1190.00
2023-04-27T01:59:42.573Z,1204.00
2023-04-27T02:00:42.608Z,1187.00
2023-04-27T02:01:42.683Z,1188.00
2023-04-27T02:02:42.857Z,1189.00
2023-04-27T02:03:42.908Z,1189.00
2023-04-27T02:04:42.872Z,1184.00
2023-04-27T02:05:42.896Z,1189.00
2023-04-27T02:06:42.900Z,1192.00
2023-04-27T02:07:43.033Z,1186.00
2023-04-27T02:08:43.034Z,1186.00
2023-04-27T02:09:43.054Z,1189.00
2023-04-27T02:10:43.101Z,1175.00
2023-04-27T02:11:43.180Z,1182.00
2023-04-27T02:12:43.248Z,1193.00
2023-04-27T02:13:43.313Z,1169.00
2023-04-27T02:14:43.368Z,1184.00
2023-04-27T02:15:43.502Z,1193.00
2023-04-27T02:16:43.484Z,1184.00
2023-04-27T02:17:43.503Z,1188.00
2023-04-27T02:18:43.612Z,1168.00
2023-04-27T02:19:43.605Z,1174.00
2023-04-27T02:20:43.665Z,1181.00
2023-04-27T02:21:43.755Z,1182.00
2023-04-27T02:22:43.759Z,1182.00
2023-04-27T02:23:43.839Z,1181.00
2023-04-27T02:24:43.902Z,1187.00
2023-04-27T02:25:43.946Z,1169.00
2023-04-27T02:26:43.989Z,1175.00
2023-04-27T02:27:44.023Z,1174.00
2023-04-27T02:28:44.114Z,1178.00
2023-04-27T02:29:44.135Z,1182.00
2023-04-27T02:30:44.224Z,1190.00
2023-04-27T02:31:44.327Z,1153.00
2023-04-27T02:32:44.390Z,1171.00
2023-04-27T02:33:44.426Z,1167.00
2023-04-27T02:34:44.431Z,1168.00
2023-04-27T02:35:44.552Z,1167.00
2023-04-27T02:36:44.549Z,1165.00
2023-04-27T02:37:44.585Z,1168.00
2023-04-27T02:38:45.627Z,1163.00
2023-04-27T02:39:44.708Z,1172.00
2023-04-27T02:40:44.782Z,1170.00
2023-04-27T02:41:44.846Z,1169.00
2023-04-27T02:42:44.893Z,1185.00
2023-04-27T02:43:44.921Z,1179.00
2023-04-27T02:44:45.002Z,1163.00
2023-04-27T02:45:45.066Z,1160.00
2023-04-27T02:46:45.215Z,1155.00
2023-04-27T02:47:45.230Z,1163.00
2023-04-27T02:48:45.236Z,1159.00
2023-04-27T02:49:45.295Z,1155.00
2023-04-27T02:50:45.349Z,1171.00
2023-04-27T02:51:45.393Z,1171.00
2023-04-27T02:52:45.498Z,1174.00
2023-04-27T02:53:45.507Z,1153.00
2023-04-27T02:54:45.581Z,1164.00
2023-04-27T02:55:45.696Z,1158.00
2023-04-27T02:56:45.706Z,1149.00
2023-04-27T02:57:45.775Z,1143.00
2023-04-27T02:58:45.815Z,1150.00
2023-04-27T02:59:45.878Z,1158.00
2023-04-27T03:00:46.207Z,1161.00
2023-04-27T03:01:46.008Z,1164.00
2023-04-27T03:02:46.316Z,1151.00
2023-04-27T03:03:46.280Z,1147.00
2023-04-27T03:04:46.175Z,1153.00
2023-04-27T03:05:46.270Z,1154.00
2023-04-27T03:06:46.283Z,1144.00
2023-04-27T03:07:46.388Z,1145.00
2023-04-27T03:08:46.456Z,1144.00
2023-04-27T03:09:46.522Z,1144.00
2023-04-27T03:10:46.563Z,1149.00
2023-04-27T03:11:46.621Z,1146.00
2023-04-27T03:12:46.648Z,1143.00
2023-04-27T03:13:46.733Z,1150.00
2023-04-27T03:14:46.798Z,1147.00
2023-04-27T03:15:46.857Z,1142.00
2023-04-27T03:16:47.018Z,1142.00
2023-04-27T03:17:47.040Z,1132.00
2023-04-27T03:18:47.017Z,1144.00
2023-04-27T03:19:47.089Z,1142.00
2023-04-27T03:20:47.139Z,1154.00
2023-04-27T03:21:47.155Z,1146.00
2023-04-27T03:22:47.256Z,1141.00
2023-04-27T03:23:47.308Z,1148.00
2023-04-27T03:24:47.367Z,1141.00
2023-04-27T03:25:47.438Z,1152.00
2023-04-27T03:26:47.484Z,1132.00
2023-04-27T03:27:47.553Z,1148.00
2023-04-27T03:28:47.629Z,1139.00
2023-04-27T03:29:47.728Z,1126.00
2023-04-27T03:30:47.773Z,1134.00
2023-04-27T03:31:47.836Z,1135.00
2023-04-27T03:32:48.022Z,1147.00
2023-04-27T03:33:47.899Z,1141.00
2023-04-27T03:34:48.018Z,1120.00
2023-04-27T03:35:48.116Z,1133.00
2023-04-27T03:36:48.180Z,1145.00
2023-04-27T03:37:48.222Z,1132.00
2023-04-27T03:38:48.282Z,1126.00
2023-04-27T03:39:48.452Z,1132.00
2023-04-27T03:40:48.509Z,1126.00
2023-04-27T03:41:48.609Z,1142.00
2023-04-27T03:42:48.719Z,1145.00
2023-04-27T03:43:48.826Z,1131.00
2023-04-27T03:44:48.894Z,1139.00
2023-04-27T03:45:49.044Z,1137.00
2023-04-27T03:46:49.114Z,1142.00
2023-04-27T03:47:49.303Z,1125.00
2023-04-27T03:48:49.364Z,1134.00
2023-04-27T03:49:49.475Z,1123.00
2023-04-27T03:50:49.591Z,1124.00
2023-04-27T03:51:49.714Z,1146.00
2023-04-27T03:52:49.811Z,1122.00
2023-04-27T03:53:49.921Z,1133.00
2023-04-27T03:54:49.982Z,1137.00
2023-04-27T03:55:50.098Z,1114.00
2023-04-27T03:56:50.209Z,1127.00
2023-04-27T03:57:50.261Z,1115.00
2023-04-27T03:58:50.430Z,1126.00
2023-04-27T03:59:50.497Z,1123.00
2023-04-27T04:00:50.715Z,1109.00
2023-04-27T04:01:50.784Z,1108.00
2023-04-27T04:02:50.987Z,1107.00
2023-04-27T04:03:51.039Z,1118.00
2023-04-27T04:04:51.240Z,1120.00
2023-04-27T04:05:51.092Z,1117.00
2023-04-27T04:06:51.218Z,1116.00
2023-04-27T04:07:51.344Z,1121.00
2023-04-27T04:08:51.424Z,1119.00
2023-04-27T04:09:51.536Z,1113.00
2023-04-27T04:10:51.695Z,1119.00
2023-04-27T04:11:51.745Z,1116.00
2023-04-27T04:12:51.856Z,1107.00
2023-04-27T04:13:52.000Z,1113.00
2023-04-27T04:14:52.010Z,1086.00
2023-04-27T04:15:52.166Z,1103.00
2023-04-27T04:16:52.241Z,1092.00
2023-04-27T04:17:52.318Z,1092.00
2023-04-27T04:18:52.397Z,1085.00
2023-04-27T04:19:52.489Z,1079.00
2023-04-27T04:20:52.650Z,1072.00
2023-04-27T04:21:52.735Z,1066.00
2023-04-27T04:22:52.785Z,1064.00
2023-04-27T04:23:52.899Z,1070.00
2023-04-27T04:24:53.059Z,1067.00
2023-04-27T04:25:53.160Z,1060.00
2023-04-27T04:26:53.280Z,1055.00
2023-04-27T04:27:53.441Z,1041.00
2023-04-27T04:28:53.529Z,1044.00
2023-04-27T04:29:53.647Z,1044.00
2023-04-27T04:30:53.794Z,1044.00
2023-04-27T04:31:53.882Z,1032.00
2023-04-27T04:32:53.980Z,1027.00
2023-04-27T04:33:54.085Z,1027.00
2023-04-27T04:34:54.201Z,1013.00
2023-04-27T04:35:54.281Z,1008.00
2023-04-27T04:36:54.373Z,1024.00
2023-04-27T04:37:54.481Z,989.00
2023-04-27T04:38:55.136Z,1013.00
2023-04-27T04:39:54.589Z,1003.00
2023-04-27T04:40:54.636Z,1001.00
2023-04-27T04:41:54.656Z,1003.00
2023-04-27T04:42:54.711Z,981.00
2023-04-27T04:43:54.764Z,988.00
2023-04-27T04:44:54.771Z,1004.00
2023-04-27T04:45:54.833Z,990.00
2023-04-27T04:46:54.933Z,981.00
2023-04-27T04:47:54.943Z,1000.00
2023-04-27T04:48:55.016Z,984.00
2023-04-27T04:49:54.974Z,987.00
2023-04-27T04:50:55.081Z,985.00
2023-04-27T04:51:55.134Z,982.00
2023-04-27T04:52:55.211Z,996.00
2023-04-27T04:53:55.252Z,980.00
2023-04-27T04:54:55.352Z,983.00
2023-04-27T04:55:55.437Z,969.00
2023-04-27T04:56:55.546Z,981.00
2023-04-27T04:57:55.653Z,983.00
2023-04-27T04:58:55.590Z,968.00
2023-04-27T04:59:55.704Z,961.00
2023-04-27T05:00:55.695Z,976.00
2023-04-27T05:01:55.841Z,964.00
2023-04-27T05:02:55.846Z,961.00
2023-04-27T05:03:55.883Z,965.00
2023-04-27T05:04:55.817Z,951.00
2023-04-27T05:05:55.798Z,968.00
2023-04-27T05:06:55.906Z,915.00
2023-04-27T05:07:55.913Z,882.00
2023-04-27T05:08:55.928Z,862.00
2023-04-27T05:09:55.931Z,833.00
2023-04-27T05:10:55.962Z,823.00
2023-04-27T05:11:56.082Z,814.00
2023-04-27T05:12:56.109Z,793.00
2023-04-27T05:13:56.158Z,789.00
2023-04-27T05:14:56.170Z,784.00
2023-04-27T05:15:56.234Z,778.00
2023-04-27T05:16:56.204Z,767.00
2023-04-27T05:17:56.245Z,758.00
2023-04-27T05:18:56.309Z,750.00
2023-04-27T05:19:56.300Z,738.00
2023-04-27T05:20:56.294Z,740.00
2023-04-27T05:21:56.322Z,737.00
2023-04-27T05:22:56.385Z,738.00
2023-04-27T05:23:56.362Z,718.00
2023-04-27T05:24:56.393Z,728.00
2023-04-27T05:25:56.397Z,711.00
2023-04-27T05:26:56.458Z,711.00
2023-04-27T05:27:56.489Z,715.00
2023-04-27T05:28:56.503Z,719.00
2023-04-27T05:29:56.552Z,698.00
2023-04-27T05:30:56.577Z,688.00
2023-04-27T05:31:56.698Z,674.00
2023-04-27T05:32:56.648Z,672.00
2023-04-27T05:33:56.627Z,659.00
2023-04-27T05:34:56.761Z,658.00
2023-04-27T05:35:56.658Z,658.00
2023-04-27T05:36:56.723Z,649.00
2023-04-27T05:37:56.730Z,652.00
2023-04-27T05:38:56.793Z,654.00
2023-04-27T05:39:56.802Z,650.00
2023-04-27T05:40:56.852Z,651.00
2023-04-27T05:41:56.879Z,656.00
2023-04-27T05:42:56.931Z,660.00
2023-04-27T05:43:56.977Z,669.00
2023-04-27T05:44:57.021Z,674.00
2023-04-27T05:45:57.113Z,684.00
2023-04-27T05:46:57.134Z,701.00
2023-04-27T05:47:57.301Z,679.00
2023-04-27T05:48:57.211Z,662.00
2023-04-27T05:49:57.370Z,662.00
2023-04-27T05:50:57.285Z,661.00
2023-04-27T05:51:57.346Z,662.00
2023-04-27T05:52:57.743Z,657.00
2023-04-27T05:53:57.382Z,662.00
2023-04-27T05:54:57.417Z,661.00
2023-04-27T05:55:57.518Z,656.00
2023-04-27T05:56:57.532Z,650.00
2023-04-27T05:58:07.141Z,642.00
2023-04-27T05:58:59.984Z,642.00
2023-04-27T05:59:57.574Z,642.00
2023-04-27T06:00:57.546Z,642.00
2023-04-27T06:01:57.653Z,633.00
2023-04-27T06:02:57.850Z,626.00
2023-04-27T06:03:57.658Z,622.00
2023-04-27T06:04:57.579Z,624.00
2023-04-27T06:05:58.884Z,617.00
2023-04-27T06:06:57.561Z,621.00
2023-04-27T06:07:57.562Z,618.00
2023-04-27T06:08:57.574Z,621.00
2023-04-27T06:09:57.549Z,620.00
2023-04-27T06:10:57.524Z,624.00
2023-04-27T06:11:57.499Z,622.00
2023-04-27T06:12:57.538Z,616.00
2023-04-27T06:13:57.484Z,617.00
2023-04-27T06:14:57.518Z,613.00
2023-04-27T06:15:57.528Z,604.00
2023-04-27T06:16:57.459Z,602.00
2023-04-27T06:17:57.543Z,596.00
2023-04-27T06:18:57.463Z,583.00
2023-04-27T06:19:57.511Z,578.00
2023-04-27T06:20:57.537Z,566.00
2023-04-27T06:21:57.573Z,561.00
2023-04-27T06:22:57.601Z,554.00
2023-04-27T06:23:57.727Z,554.00
2023-04-27T06:24:57.703Z,547.00
2023-04-27T06:25:57.710Z,540.00
2023-04-27T06:26:57.829Z,540.00
2023-04-27T06:27:57.849Z,532.00
2023-04-27T06:28:57.804Z,524.00
2023-04-27T06:29:57.859Z,525.00
2023-04-27T06:30:57.854Z,523.00
2023-04-27T06:31:57.902Z,524.00
2023-04-27T06:32:57.940Z,526.00
2023-04-27T06:33:57.934Z,531.00
2023-04-27T06:34:57.977Z,537.00
2023-04-27T06:35:58.088Z,548.00
2023-04-27T06:36:58.000Z,539.00
2023-04-27T06:37:57.983Z,542.00
2023-04-27T06:38:57.964Z,535.00
2023-04-27T06:39:58.001Z,541.00
2023-04-27T06:40:57.983Z,540.00
2023-04-27T06:41:58.014Z,534.00
2023-04-27T06:42:58.026Z,522.00
2023-04-27T06:43:59.021Z,529.00
2023-04-27T06:44:58.030Z,533.00
2023-04-27T06:45:58.104Z,536.00
2023-04-27T06:46:58.061Z,541.00
2023-04-27T06:47:58.114Z,539.00
2023-04-27T06:48:58.073Z,543.00
2023-04-27T06:49:58.088Z,536.00
2023-04-27T06:50:58.103Z,525.00
2023-04-27T06:51:58.170Z,517.00
2023-04-27T06:52:58.181Z,517.00
2023-04-27T06:53:58.165Z,509.00
2023-04-27T06:54:58.121Z,502.00
2023-04-27T06:55:58.115Z,506.00
2023-04-27T06:56:58.174Z,504.00
2023-04-27T06:57:58.178Z,507.00
2023-04-27T06:58:58.199Z,506.00
2023-04-27T06:59:58.163Z,509.00
2023-04-27T07:00:58.234Z,503.00
2023-04-27T07:01:58.271Z,500.00
2023-04-27T07:02:58.412Z,505.00
2023-04-27T07:03:58.405Z,504.00
2023-04-27T07:04:58.369Z,505.00
2023-04-27T07:05:58.314Z,494.00
2023-04-27T07:06:58.314Z,502.00
2023-04-27T07:07:58.686Z,501.00
2023-04-27T07:08:58.326Z,528.00
2023-04-27T07:09:58.332Z,530.00
2023-04-27T07:10:58.295Z,546.00
2023-04-27T07:11:58.295Z,532.00
2023-04-27T07:12:58.278Z,541.00
2023-04-27T07:13:58.289Z,521.00
2023-04-27T07:14:58.286Z,518.00
2023-04-27T07:15:58.302Z,522.00
2023-04-27T07:16:58.355Z,522.00
2023-04-27T07:17:58.289Z,527.00
2023-04-27T07:18:58.291Z,530.00
2023-04-27T07:19:58.280Z,530.00
2023-04-27T07:20:58.366Z,535.00
2023-04-27T07:21:58.312Z,531.00
2023-04-27T07:22:58.297Z,532.00
2023-04-27T07:23:58.243Z,532.00
2023-04-27T07:24:58.279Z,532.00
2023-04-27T07:25:58.283Z,537.00
2023-04-27T07:26:58.321Z,534.00
2023-04-27T07:27:58.310Z,531.00
2023-04-27T07:28:58.315Z,529.00
2023-04-27T07:29:58.351Z,544.00
2023-04-27T07:30:58.731Z,539.00
2023-04-27T07:31:58.399Z,556.00
2023-04-27T07:32:58.402Z,573.00
2023-04-27T07:33:58.337Z,594.00
2023-04-27T07:34:58.289Z,602.00
2023-04-27T07:35:58.381Z,603.00
2023-04-27T07:36:58.333Z,614.00
2023-04-27T07:37:58.369Z,620.00
2023-04-27T07:38:58.425Z,641.00
2023-04-27T07:39:58.513Z,652.00
2023-04-27T07:40:58.536Z,666.00
2023-04-27T07:41:58.595Z,699.00
2023-04-27T07:42:58.653Z,734.00
2023-04-27T07:43:58.721Z,745.00
2023-04-27T07:44:58.813Z,808.00
2023-04-27T07:45:58.885Z,836.00
2023-04-27T07:46:58.915Z,901.00
2023-04-27T07:47:59.044Z,918.00
2023-04-27T07:48:58.897Z,947.00
2023-04-27T07:49:58.953Z,976.00
2023-04-27T07:50:58.963Z,1019.00
2023-04-27T07:51:58.967Z,1037.00
2023-04-27T07:52:59.135Z,1055.00
2023-04-27T07:53:59.026Z,1069.00
2023-04-27T07:54:59.038Z,1112.00
2023-04-27T07:55:59.056Z,1138.00
2023-04-27T07:56:59.046Z,1150.00
2023-04-27T07:57:59.164Z,1187.00
2023-04-27T07:58:59.149Z,1191.00
2023-04-27T07:59:59.143Z,1236.00
2023-04-27T08:00:59.353Z,1251.00
2023-04-27T08:02:17.044Z,1281.00
2023-04-27T08:03:00.374Z,1282.00
2023-04-27T08:03:59.399Z,1289.00
2023-04-27T08:04:59.496Z,1299.00
2023-04-27T08:05:59.282Z,1330.00
2023-04-27T08:06:59.694Z,1357.00
2023-04-27T08:07:59.537Z,1373.00
2023-04-27T08:08:59.224Z,1386.00
2023-04-27T08:09:59.152Z,1401.00
2023-04-27T08:10:59.114Z,1437.00
2023-04-27T08:11:59.086Z,1470.00
2023-04-27T08:12:59.072Z,1481.00
2023-04-27T08:13:59.129Z,1518.00
2023-04-27T08:14:59.073Z,1542.00
2023-04-27T08:15:59.113Z,1547.00
2023-04-27T08:16:59.248Z,1579.00
2023-04-27T08:17:59.305Z,1598.00
2023-04-27T08:19:00.693Z,1624.00
2023-04-27T08:19:59.296Z,1658.00
2023-04-27T08:20:59.321Z,1676.00
2023-04-27T08:21:59.431Z,1710.00
2023-04-27T08:22:59.451Z,1725.00
2023-04-27T08:23:59.512Z,1720.00
2023-04-27T08:24:59.569Z,1752.00
2023-04-27T08:25:59.620Z,1773.00
2023-04-27T08:26:59.625Z,1809.00
2023-04-27T08:27:59.717Z,1802.00
2023-04-27T08:28:59.834Z,1816.00
2023-04-27T08:29:59.790Z,1820.00
2023-04-27T08:30:59.899Z,1829.00
2023-04-27T08:31:59.969Z,1820.00
2023-04-27T08:32:59.985Z,1840.00
2023-04-27T08:34:00.017Z,1834.00
2023-04-27T08:35:00.028Z,1804.00
2023-04-27T08:36:00.187Z,1803.00
2023-04-27T08:37:00.150Z,1794.00
2023-04-27T08:38:00.205Z,1786.00
2023-04-27T08:39:00.230Z,1778.00
2023-04-27T08:40:00.342Z,1757.00
2023-04-27T08:41:07.536Z,1753.00
2023-04-27T08:42:01.375Z,1754.00
2023-04-27T08:43:00.439Z,1758.00
2023-04-27T08:44:00.329Z,1762.00
2023-04-27T08:45:00.300Z,1762.00
2023-04-27T08:46:00.342Z,1743.00
2023-04-27T08:47:00.299Z,1709.00
2023-04-27T08:48:00.394Z,1605.00
2023-04-27T08:49:00.298Z,1535.00
2023-04-27T08:50:00.315Z,1490.00
2023-04-27T08:51:00.400Z,1513.00
2023-04-27T08:52:00.432Z,1581.00
2023-04-27T08:53:00.595Z,1604.00
2023-04-27T08:54:00.758Z,1613.00
2023-04-27T08:55:00.942Z,1629.00
2023-04-27T08:56:01.157Z,1641.00
2023-04-27T08:57:01.242Z,1656.00
2023-04-27T08:58:01.401Z,1653.00
2023-04-27T08:59:01.515Z,1649.00
2023-04-27T09:00:01.621Z,1664.00
2023-04-27T09:01:01.701Z,1689.00
2023-04-27T09:02:01.781Z,1681.00
2023-04-27T09:03:01.822Z,1691.00
2023-04-27T09:04:02.072Z,1696.00
2023-04-27T09:05:02.073Z,1719.00
2023-04-27T09:06:05.276Z,1713.00
2023-04-27T09:07:01.900Z,1714.00
2023-04-27T09:08:01.875Z,1715.00
2023-04-27T09:09:01.874Z,1721.00
2023-04-27T09:10:01.931Z,1728.00
2023-04-27T09:11:01.897Z,1732.00
2023-04-27T09:12:01.895Z,1735.00
2023-04-27T09:13:01.921Z,1741.00
2023-04-27T09:14:01.897Z,1746.00
2023-04-27T09:15:01.822Z,1757.00
2023-04-27T09:16:01.852Z,1773.00
2023-04-27T09:17:01.844Z,1767.00
2023-04-27T09:18:01.909Z,1779.00
2023-04-27T09:19:01.850Z,1772.00
2023-04-27T09:20:01.825Z,1781.00
2023-04-27T09:21:01.831Z,1808.00
2023-04-27T09:22:01.813Z,1799.00
2023-04-27T09:23:01.801Z,1801.00
2023-04-27T09:24:01.799Z,1821.00
2023-04-27T09:25:01.767Z,1821.00
2023-04-27T09:26:01.787Z,1825.00
2023-04-27T09:27:01.822Z,1812.00
2023-04-27T09:28:01.802Z,1820.00
2023-04-27T09:29:01.786Z,1833.00
2023-04-27T09:30:01.797Z,1831.00
2023-04-27T09:31:01.753Z,1835.00
2023-04-27T09:32:01.791Z,1833.00
2023-04-27T09:33:01.858Z,1850.00
2023-04-27T09:34:01.741Z,1829.00
2023-04-27T09:35:01.793Z,1827.00
2023-04-27T09:36:01.728Z,1766.00
2023-04-27T09:37:01.716Z,1630.00
2023-04-27T09:38:01.731Z,1441.00
2023-04-27T09:39:01.811Z,1498.00
2023-04-27T09:40:01.843Z,1579.00
2023-04-27T09:41:01.889Z,1623.00
2023-04-27T09:42:01.925Z,1646.00
2023-04-27T09:43:02.026Z,1656.00
2023-04-27T09:44:02.022Z,1651.00
2023-04-27T09:45:02.088Z,1689.00
2023-04-27T09:46:02.138Z,1710.00
2023-04-27T09:47:02.086Z,1735.00
2023-04-27T09:48:02.234Z,1729.00
2023-04-27T09:49:02.209Z,1717.00
2023-04-27T09:50:02.260Z,1721.00
2023-04-27T09:51:02.234Z,1747.00
2023-04-27T09:52:02.277Z,1735.00
2023-04-27T09:53:02.305Z,1753.00
2023-04-27T09:54:02.367Z,1768.00
2023-04-27T09:55:02.398Z,1770.00
2023-04-27T09:56:02.397Z,1777.00
2023-04-27T09:57:02.421Z,1776.00
2023-04-27T09:58:02.503Z,1784.00
2023-04-27T09:59:02.520Z,1795.00
2023-04-27T10:00:02.550Z,1806.00
2023-04-27T10:01:02.607Z,1831.00
2023-04-27T10:02:09.974Z,1841.00
2023-04-27T10:03:03.604Z,1842.00
2023-04-27T10:04:02.662Z,1843.00
2023-04-27T10:05:02.593Z,1844.00
2023-04-27T10:06:02.552Z,1868.00
2023-04-27T10:07:02.573Z,1916.00
2023-04-27T10:08:02.526Z,1922.00
2023-04-27T10:09:02.522Z,1785.00
2023-04-27T10:10:02.492Z,1511.00
2023-04-27T10:11:02.532Z,1415.00
2023-04-27T10:12:02.546Z,1318.00
2023-04-27T10:13:02.528Z,1205.00
2023-04-27T10:14:02.478Z,1089.00
2023-04-27T10:15:02.469Z,966.00
2023-04-27T10:16:02.456Z,848.00
2023-04-27T10:17:02.533Z,752.00
2023-04-27T10:18:02.466Z,655.00
2023-04-27T10:19:02.436Z,621.00
2023-04-27T10:20:02.414Z,613.00
2023-04-27T10:21:02.432Z,598.00
2023-04-27T10:22:02.623Z,589.00
2023-04-27T10:23:02.475Z,579.00
2023-04-27T10:24:02.445Z,550.00
2023-04-27T10:25:02.500Z,520.00
2023-04-27T10:26:02.599Z,544.00
2023-04-27T10:27:02.608Z,564.00
2023-04-27T10:28:02.619Z,589.00
2023-04-27T10:29:02.606Z,621.00
2023-04-27T10:30:02.653Z,660.00
2023-04-27T10:31:02.812Z,748.00
2023-04-27T10:32:02.896Z,743.00
2023-04-27T10:33:02.930Z,733.00
2023-04-27T10:34:02.957Z,767.00
2023-04-27T10:35:03.001Z,778.00
2023-04-27T10:36:03.475Z,868.00
2023-04-27T10:37:03.092Z,950.00
2023-04-27T10:38:03.157Z,899.00
2023-04-27T10:39:03.182Z,937.00
2023-04-27T10:40:03.280Z,937.00
2023-04-27T10:41:03.253Z,957.00
2023-04-27T10:42:03.265Z,968.00
2023-04-27T10:43:03.326Z,975.00
2023-04-27T10:44:03.349Z,1017.00
2023-04-27T10:45:03.392Z,1051.00
2023-04-27T10:46:03.376Z,1071.00
2023-04-27T10:47:03.449Z,1094.00
2023-04-27T10:48:03.472Z,1019.00
2023-04-27T10:49:03.465Z,915.00
2023-04-27T10:50:03.485Z,923.00
2023-04-27T10:51:03.650Z,910.00
2023-04-27T10:52:03.588Z,996.00
2023-04-27T10:53:03.690Z,962.00
2023-04-27T10:54:03.602Z,945.00
2023-04-27T10:55:03.714Z,853.00
2023-04-27T10:56:03.715Z,914.00
2023-04-27T10:57:03.744Z,920.00
2023-04-27T10:58:03.783Z,851.00
2023-04-27T10:59:03.785Z,888.00
2023-04-27T11:00:03.775Z,953.00
2023-04-27T11:01:03.814Z,940.00
2023-04-27T11:02:03.932Z,875.00
2023-04-27T11:03:04.060Z,871.00
2023-04-27T11:04:03.923Z,859.00
2023-04-27T11:05:03.992Z,950.00
2023-04-27T11:06:03.961Z,901.00
2023-04-27T11:07:04.037Z,832.00
2023-04-27T11:08:04.055Z,823.00
2023-04-27T11:09:04.161Z,862.00
2023-04-27T11:10:04.139Z,883.00
2023-04-27T11:11:04.132Z,957.00
2023-04-27T11:12:04.155Z,972.00
2023-04-27T11:13:04.136Z,974.00
2023-04-27T11:14:04.187Z,1050.00
2023-04-27T11:15:04.168Z,1082.00
2023-04-27T11:16:04.184Z,1092.00
2023-04-27T11:17:04.166Z,1126.00
2023-04-27T11:18:04.244Z,1164.00
2023-04-27T11:19:04.204Z,1167.00
2023-04-27T11:20:04.206Z,1211.00
2023-04-27T11:21:04.234Z,1234.00
2023-04-27T11:22:04.264Z,1202.00
2023-04-27T11:23:04.182Z,1173.00
2023-04-27T11:24:04.180Z,1119.00
2023-04-27T11:25:04.200Z,1156.00
2023-04-27T11:26:04.214Z,1101.00
2023-04-27T11:27:04.229Z,1147.00
2023-04-27T11:28:04.168Z,1209.00
2023-04-27T11:29:04.229Z,1193.00
2023-04-27T11:30:04.199Z,1207.00
2023-04-27T11:31:04.266Z,1214.00
2023-04-27T11:32:04.300Z,1207.00
2023-04-27T11:33:04.258Z,1206.00
2023-04-27T11:34:04.259Z,1195.00
2023-04-27T11:35:04.225Z,1219.00
2023-04-27T11:36:04.271Z,1213.00
2023-04-27T11:37:17.464Z,1217.00
2023-04-27T11:38:05.238Z,1218.00
2023-04-27T11:39:04.268Z,1218.00
2023-04-27T11:40:04.255Z,1224.00
2023-04-27T11:41:04.202Z,1226.00
2023-04-27T11:42:04.181Z,1251.00
2023-04-27T11:43:04.178Z,1241.00
2023-04-27T11:44:04.154Z,1248.00
2023-04-27T11:45:04.169Z,1255.00
2023-04-27T11:46:04.175Z,1244.00
2023-04-27T11:47:04.250Z,1240.00
2023-04-27T11:48:04.270Z,1249.00
2023-04-27T11:49:04.147Z,1255.00
2023-04-27T11:50:04.192Z,1264.00
2023-04-27T11:51:04.155Z,1259.00
2023-04-27T11:52:04.112Z,1267.00
2023-04-27T11:53:04.111Z,1272.00
2023-04-27T11:54:04.105Z,1272.00
2023-04-27T11:55:04.160Z,1280.00
2023-04-27T11:56:04.102Z,1266.00
2023-04-27T11:57:04.065Z,1250.00
2023-04-27T11:58:04.072Z,1255.00
2023-04-27T11:59:04.063Z,1269.00
2023-04-27T12:00:04.059Z,1261.00
2023-04-27T12:01:04.116Z,1267.00
2023-04-27T12:02:04.077Z,1271.00
2023-04-27T12:03:04.233Z,1254.00
2023-04-27T12:04:04.150Z,1259.00
2023-04-27T12:05:04.318Z,1242.00
2023-04-27T12:06:21.351Z,1260.00
2023-04-27T12:07:05.026Z,1260.00
2023-04-27T12:08:04.017Z,1259.00
2023-04-27T12:09:04.009Z,1237.00
2023-04-27T12:10:03.976Z,1221.00
2023-04-27T12:11:03.959Z,1226.00
2023-04-27T12:12:03.958Z,1215.00
2023-04-27T12:13:03.970Z,1196.00
2023-04-27T12:14:04.061Z,1202.00